Morton S Bouchard Jr — WSE9678 — position and weather

sailwx.info

Track history (hours):
 
Tides and Currents Weather Stations Pressure Air Temp Water Temp Dewpoint Dewpoint Depression Visibility Wind Speed Wind Dir Waves Ship Positions

Morton S Bouchard Jr

Owner: BOUCHARD TRANSPORTATION CO INC, MELVILLE, NY. More information available from US FCC via Universal Licensing System and Coast Guard Vessel Documentation Center.

Last reported at 2017-Jan-18 11:33 UTC. Time now 2017-Jan-18 12:10 UTC.
Position N 40°39' W 074°07'.

Length 33 m; draft 5 m.

Type: Tug. MMSI: 367006550.

Date/timePositionNaut miles runAvg speedWind from/ knotsBaromVisibWave heightAir tempDewpointWater temp
2017-Jan-18 11:33N 40°39' W 074°07'0 0.0
2017-Jan-18 10:33N 40°39' W 074°07'0 0.0
2017-Jan-18 09:33N 40°39' W 074°07'0 0.0
2017-Jan-18 08:33N 40°39' W 074°07'0 0.0
2017-Jan-18 07:33N 40°39' W 074°07'0 0.0
2017-Jan-18 06:33N 40°39' W 074°07'0 0.0
2017-Jan-18 05:33N 40°39' W 074°07'0 0.3
2017-Jan-18 04:33N 40°39' W 074°07'0 0.0
2017-Jan-18 03:33N 40°39' W 074°07'0 0.0
2017-Jan-18 02:33N 40°39' W 074°07'3 3.3
2017-Jan-18 01:33N 40°40' W 074°03'2 2.4
2017-Jan-18 00:33N 40°42' W 074°00'3 2.7
2017-Jan-17 23:34N 40°39' W 074°03'5 4.6
2017-Jan-17 22:33N 40°35' W 074°01'0 0.0
2017-Jan-17 21:33N 40°35' W 074°01'0 0.0
2017-Jan-17 20:33N 40°35' W 074°01'2 1.8
2017-Jan-17 19:33N 40°36' W 074°03'7 7.3
2017-Jan-17 18:33N 40°37' W 074°12'5 5.3
2017-Jan-17 17:33N 40°32' W 074°15'0 0.4
2017-Jan-17 16:33N 40°33' W 074°15'0 0.0
2017-Jan-17 15:33N 40°33' W 074°15'0 0.0
2017-Jan-17 14:30N 40°33' W 074°15'0 0.0
2017-Jan-17 13:33N 40°33' W 074°15'0 0.0
2017-Jan-17 12:33N 40°33' W 074°15'0 0.3
2017-Jan-17 11:33N 40°33' W 074°15'0 0.3
2017-Jan-17 10:33N 40°33' W 074°15'4 3.7
2017-Jan-17 09:32N 40°36' W 074°12'0 0.0
2017-Jan-17 08:33N 40°36' W 074°12'0 0.0
2017-Jan-17 07:32N 40°36' W 074°12'0 0.0
2017-Jan-17 06:31N 40°36' W 074°12'0 0.0
2017-Jan-17 05:33N 40°36' W 074°12'0 0.0
2017-Jan-17 04:32N 40°36' W 074°12'0 0.0
2017-Jan-17 03:33N 40°36' W 074°12'0 0.0
2017-Jan-17 02:33N 40°36' W 074°12'0 0.0
2017-Jan-17 01:33N 40°36' W 074°12'0 0.0
2017-Jan-17 00:33N 40°36' W 074°12'0 0.0
2017-Jan-16 23:33N 40°36' W 074°12'0 0.0
2017-Jan-16 22:33N 40°36' W 074°12'0 0.0
2017-Jan-16 21:33N 40°36' W 074°12'0 0.0
2017-Jan-16 20:33N 40°36' W 074°12'0 0.0
2017-Jan-16 19:33N 40°36' W 074°12'0 0.0
2017-Jan-16 18:33N 40°36' W 074°12'2 2.3
2017-Jan-16 17:32N 40°33' W 074°13'2 1.5
2017-Jan-16 16:33N 40°33' W 074°15'0 0.0
2017-Jan-16 15:33N 40°33' W 074°15'0 0.0
2017-Jan-16 14:31N 40°33' W 074°15'1 0.7
2017-Jan-16 13:08N 40°32' W 074°15'1 1.6
2017-Jan-16 12:31N 40°33' W 074°15'5 5.6
2017-Jan-16 11:33N 40°38' W 074°12'5 5.0
2017-Jan-16 10:33N 40°39' W 074°06'0 0.0
2017-Jan-16 09:33N 40°39' W 074°06'0 0.0
2017-Jan-16 08:33N 40°39' W 074°06'0 0.0
2017-Jan-16 07:33N 40°39' W 074°06'0 0.0
2017-Jan-16 06:33N 40°39' W 074°06'0 0.0
2017-Jan-16 05:33N 40°39' W 074°06'0 0.0
2017-Jan-16 04:33N 40°39' W 074°06'0 0.0
2017-Jan-16 03:33N 40°39' W 074°06'0 0.0
2017-Jan-16 02:33N 40°39' W 074°06'0 0.0
2017-Jan-16 01:33N 40°39' W 074°06'0 0.0
2017-Jan-16 00:33N 40°39' W 074°06'7 7.3
2017-Jan-15 23:33N 40°43' W 073°58'1 1.3
2017-Jan-15 22:34N 40°44' W 073°58'6 6.3
2017-Jan-15 21:33N 40°39' W 074°03'2 2.1
2017-Jan-15 20:33N 40°39' W 074°06'6 5.9
2017-Jan-15 19:33N 40°36' W 074°12'0 0.1
2017-Jan-15 18:33N 40°35' W 074°12'0 0.0
2017-Jan-15 17:33N 40°35' W 074°12'0 0.0
2017-Jan-15 16:33N 40°35' W 074°12'1 0.9
2017-Jan-15 15:33N 40°35' W 074°13'1 0.5
2017-Jan-15 13:32N 40°35' W 074°12'6 6.1
2017-Jan-15 12:33N 40°39' W 074°06'0 0.0
2017-Jan-15 11:33N 40°39' W 074°06'0 0.0
2017-Jan-15 10:33N 40°39' W 074°06'0 0.0
2017-Jan-15 09:33N 40°39' W 074°06'0 0.0
2017-Jan-15 08:33N 40°39' W 074°06'0 0.0
2017-Jan-15 07:33N 40°39' W 074°06'0 0.0
2017-Jan-15 06:33N 40°39' W 074°06'1 0.6
2017-Jan-15 05:33N 40°39' W 074°05'1 1.2
2017-Jan-15 04:33N 40°40' W 074°04'3 2.8
2017-Jan-15 03:33N 40°39' W 074°07'0 0.0
2017-Jan-15 02:33N 40°39' W 074°07'0 0.0
2017-Jan-15 01:33N 40°39' W 074°07'0 0.0
2017-Jan-15 00:33N 40°39' W 074°07'0 0.0
2017-Jan-14 23:33N 40°39' W 074°07'3 2.8
2017-Jan-14 22:33N 40°39' W 074°11'3 2.9
2017-Jan-14 21:33N 40°36' W 074°12'3 3.3
2017-Jan-14 20:33N 40°39' W 074°10'5 5.4
2017-Jan-14 19:33N 40°39' W 074°02'0 0.0
2017-Jan-14 18:33N 40°39' W 074°02'0 0.0
2017-Jan-14 17:33N 40°39' W 074°02'0 0.0
2017-Jan-14 16:33N 40°39' W 074°02'0 0.1
2017-Jan-14 15:33N 40°40' W 074°02'0 0.1
2017-Jan-14 14:33N 40°40' W 074°02'0 0.0
2017-Jan-14 13:33N 40°40' W 074°02'0 0.0
2017-Jan-14 12:33N 40°40' W 074°02'0 0.1
2017-Jan-14 11:33N 40°39' W 074°03'0 0.1
2017-Jan-14 10:33N 40°39' W 074°02'8 8.0
2017-Jan-14 09:33N 40°47' W 073°60'1212.3
2017-Jan-14 08:33N 40°59' W 073°54'2 0.1
2017-Jan-13 09:20N 40°56' W 073°55'4 4.9
2017-Jan-13 08:33N 40°53' W 073°56'4 4.4
2017-Jan-13 07:33N 40°49' W 073°58'4 4.2
2017-Jan-13 06:33N 40°45' W 074°01'5 5.1
2017-Jan-13 05:33N 40°40' W 074°03'7 6.7
2017-Jan-13 04:33N 40°39' W 074°11'6 0.9
2017-Jan-12 21:33N 40°33' W 074°15'1 1.2
2017-Jan-12 20:33N 40°33' W 074°14'2 0.3
2017-Jan-12 13:25N 40°35' W 074°12'0 0.3
2017-Jan-12 12:16N 40°35' W 074°13'0 0.0
2017-Jan-12 09:24N 40°35' W 074°13'0 0.0
2017-Jan-12 08:33N 40°35' W 074°13'0 0.0
2017-Jan-12 07:33N 40°35' W 074°13'0 0.0
2017-Jan-12 06:33N 40°35' W 074°13'3 3.0
2017-Jan-12 05:33N 40°33' W 074°15'1 0.3
2017-Jan-12 01:33N 40°33' W 074°14'5 4.7
2017-Jan-12 00:33N 40°38' W 074°12'2 1.9
2017-Jan-11 23:33N 40°38' W 074°10'0 0.0
2017-Jan-11 22:33N 40°38' W 074°10'3 2.8
2017-Jan-11 21:33N 40°39' W 074°06'0 0.0
2017-Jan-11 20:33N 40°39' W 074°06'0 0.0
2017-Jan-11 19:33N 40°39' W 074°06'1 0.7
2017-Jan-11 18:34N 40°39' W 074°05'2 1.9
2017-Jan-11 17:33N 40°39' W 074°03'0 0.0
2017-Jan-11 16:33N 40°39' W 074°03'0 0.1
2017-Jan-11 15:33N 40°39' W 074°03'0 0.0
2017-Jan-11 14:33N 40°39' W 074°03'0 0.1
2017-Jan-11 13:33N 40°39' W 074°02'0 0.0
2017-Jan-11 12:33N 40°39' W 074°02'0 0.0
2017-Jan-11 11:33N 40°39' W 074°02'0 0.0
2017-Jan-11 10:33N 40°39' W 074°02'0 0.0
2017-Jan-11 09:33N 40°39' W 074°02'0 0.0
2017-Jan-11 08:33N 40°39' W 074°02'0 0.0
2017-Jan-11 07:33N 40°39' W 074°02'0 0.1
2017-Jan-11 06:33N 40°39' W 074°03'0 0.0
2017-Jan-11 05:33N 40°39' W 074°03'0 0.0
2017-Jan-11 04:33N 40°39' W 074°03'0 0.1
2017-Jan-11 03:33N 40°39' W 074°03'0 0.0
2017-Jan-11 02:34N 40°39' W 074°03'0 0.0
2017-Jan-11 01:34N 40°39' W 074°03'0 0.0
2017-Jan-11 00:34N 40°39' W 074°02'1 0.6
2017-Jan-10 23:33N 40°40' W 074°03'0 0.0
2017-Jan-10 22:33N 40°40' W 074°03'0 0.0
2017-Jan-10 21:33N 40°40' W 074°03'0 0.1
2017-Jan-10 20:34N 40°40' W 074°03'0 0.1
2017-Jan-10 19:33N 40°40' W 074°03'0 0.0
2017-Jan-10 18:34N 40°40' W 074°03'0 0.0
2017-Jan-10 17:32N 40°40' W 074°03'0 0.0
2017-Jan-10 16:33N 40°40' W 074°03'0 0.0
2017-Jan-10 15:33N 40°40' W 074°03'0 0.0
2017-Jan-10 14:33N 40°40' W 074°03'0 0.1
2017-Jan-10 13:33N 40°40' W 074°03'1 1.3
2017-Jan-10 12:33N 40°39' W 074°04'1 1.4
2017-Jan-10 11:33N 40°39' W 074°06'0 0.0
2017-Jan-10 10:33N 40°39' W 074°06'0 0.0
2017-Jan-10 09:33N 40°39' W 074°06'1 1.0
2017-Jan-10 08:33N 40°39' W 074°07'0 0.0
2017-Jan-10 07:33N 40°39' W 074°07'2 2.4
2017-Jan-10 06:33N 40°39' W 074°10'7 7.2
2017-Jan-10 05:33N 40°33' W 074°15'0 0.0
2017-Jan-10 04:32N 40°33' W 074°15'0 0.3
2017-Jan-10 03:33N 40°32' W 074°15'0 0.0
2017-Jan-10 02:33N 40°32' W 074°15'1 0.4
2017-Jan-09 23:27N 40°33' W 074°14'6 6.6
2017-Jan-09 22:32N 40°39' W 074°11'3 2.8
2017-Jan-09 21:33N 40°39' W 074°07'0 0.0
2017-Jan-09 20:33N 40°39' W 074°07'0 0.0
2017-Jan-09 19:33N 40°39' W 074°07'0 0.0
2017-Jan-09 18:34N 40°39' W 074°07'0 0.0
2017-Jan-09 17:34N 40°39' W 074°07'4 4.1
2017-Jan-09 16:33N 40°37' W 074°12'2 1.7
2017-Jan-09 15:32N 40°35' W 074°12'1 0.4
2017-Jan-09 14:19N 40°36' W 074°12'5 6.9
2017-Jan-09 13:33N 40°39' W 074°06'3 3.2
2017-Jan-09 12:33N 40°39' W 074°02'0 0.0
2017-Jan-09 11:33N 40°39' W 074°02'0 0.0
2017-Jan-09 10:33N 40°39' W 074°02'0 0.0
2017-Jan-09 09:33N 40°39' W 074°02'0 0.0
2017-Jan-09 08:33N 40°39' W 074°02'3 2.6
2017-Jan-09 07:33N 40°42' W 074°00'0 0.0
2017-Jan-09 06:34N 40°42' W 074°00'3 2.6
2017-Jan-09 05:34N 40°39' W 074°02'0 0.0
2017-Jan-09 04:34N 40°39' W 074°02'0 0.0
2017-Jan-09 03:33N 40°39' W 074°02'0 0.0
2017-Jan-09 02:33N 40°39' W 074°02'0 0.0
2017-Jan-09 01:34N 40°39' W 074°02'0 0.0
2017-Jan-09 00:34N 40°39' W 074°02'6 5.9
2017-Jan-08 23:33N 40°44' W 073°58'7 6.6
2017-Jan-08 22:34N 40°48' W 073°51'9 5.9
2017-Jan-08 21:06N 40°54' W 073°42'1 2.1
2017-Jan-08 20:33N 40°55' W 073°42'  
Track history (hours):
 
Tides and Currents Weather Stations Pressure Air Temp Water Temp Dewpoint Dewpoint Depression Visibility Wind Speed Wind Dir Waves Ship Positions

Morton S Bouchard Jr

Owner: BOUCHARD TRANSPORTATION CO INC, MELVILLE, NY. More information available from US FCC via Universal Licensing System and Coast Guard Vessel Documentation Center.

Last reported at 2017-Jan-18 11:33 UTC. Time now 2017-Jan-18 12:10 UTC.
Position N 40°39' W 074°07'.

Length 33 m; draft 5 m.

Type: Tug. MMSI: 367006550.

Date/timePositionNaut miles runAvg speedWind from/ knotsBaromVisibWave heightAir tempDewpointWater temp
2017-Jan-18 11:33N 40°39' W 074°07'0 0.0
2017-Jan-18 10:33N 40°39' W 074°07'0 0.0
2017-Jan-18 09:33N 40°39' W 074°07'0 0.0
2017-Jan-18 08:33N 40°39' W 074°07'0 0.0
2017-Jan-18 07:33N 40°39' W 074°07'0 0.0
2017-Jan-18 06:33N 40°39' W 074°07'0 0.0
2017-Jan-18 05:33N 40°39' W 074°07'0 0.3
2017-Jan-18 04:33N 40°39' W 074°07'0 0.0
2017-Jan-18 03:33N 40°39' W 074°07'0 0.0
2017-Jan-18 02:33N 40°39' W 074°07'3 3.3
2017-Jan-18 01:33N 40°40' W 074°03'2 2.4
2017-Jan-18 00:33N 40°42' W 074°00'3 2.7
2017-Jan-17 23:34N 40°39' W 074°03'5 4.6
2017-Jan-17 22:33N 40°35' W 074°01'0 0.0
2017-Jan-17 21:33N 40°35' W 074°01'0 0.0
2017-Jan-17 20:33N 40°35' W 074°01'2 1.8
2017-Jan-17 19:33N 40°36' W 074°03'7 7.3
2017-Jan-17 18:33N 40°37' W 074°12'5 5.3
2017-Jan-17 17:33N 40°32' W 074°15'0 0.4
2017-Jan-17 16:33N 40°33' W 074°15'0 0.0
2017-Jan-17 15:33N 40°33' W 074°15'0 0.0
2017-Jan-17 14:30N 40°33' W 074°15'0 0.0
2017-Jan-17 13:33N 40°33' W 074°15'0 0.0
2017-Jan-17 12:33N 40°33' W 074°15'0 0.3
2017-Jan-17 11:33N 40°33' W 074°15'0 0.3
2017-Jan-17 10:33N 40°33' W 074°15'4 3.7
2017-Jan-17 09:32N 40°36' W 074°12'0 0.0
2017-Jan-17 08:33N 40°36' W 074°12'0 0.0
2017-Jan-17 07:32N 40°36' W 074°12'0 0.0
2017-Jan-17 06:31N 40°36' W 074°12'0 0.0
2017-Jan-17 05:33N 40°36' W 074°12'0 0.0
2017-Jan-17 04:32N 40°36' W 074°12'0 0.0
2017-Jan-17 03:33N 40°36' W 074°12'0 0.0
2017-Jan-17 02:33N 40°36' W 074°12'0 0.0
2017-Jan-17 01:33N 40°36' W 074°12'0 0.0
2017-Jan-17 00:33N 40°36' W 074°12'0 0.0
2017-Jan-16 23:33N 40°36' W 074°12'0 0.0
2017-Jan-16 22:33N 40°36' W 074°12'0 0.0
2017-Jan-16 21:33N 40°36' W 074°12'0 0.0
2017-Jan-16 20:33N 40°36' W 074°12'0 0.0
2017-Jan-16 19:33N 40°36' W 074°12'0 0.0
2017-Jan-16 18:33N 40°36' W 074°12'2 2.3
2017-Jan-16 17:32N 40°33' W 074°13'2 1.5
2017-Jan-16 16:33N 40°33' W 074°15'0 0.0
2017-Jan-16 15:33N 40°33' W 074°15'0 0.0
2017-Jan-16 14:31N 40°33' W 074°15'1 0.7
2017-Jan-16 13:08N 40°32' W 074°15'1 1.6
2017-Jan-16 12:31N 40°33' W 074°15'5 5.6
2017-Jan-16 11:33N 40°38' W 074°12'5 5.0
2017-Jan-16 10:33N 40°39' W 074°06'0 0.0
2017-Jan-16 09:33N 40°39' W 074°06'0 0.0
2017-Jan-16 08:33N 40°39' W 074°06'0 0.0
2017-Jan-16 07:33N 40°39' W 074°06'0 0.0
2017-Jan-16 06:33N 40°39' W 074°06'0 0.0
2017-Jan-16 05:33N 40°39' W 074°06'0 0.0
2017-Jan-16 04:33N 40°39' W 074°06'0 0.0
2017-Jan-16 03:33N 40°39' W 074°06'0 0.0
2017-Jan-16 02:33N 40°39' W 074°06'0 0.0
2017-Jan-16 01:33N 40°39' W 074°06'0 0.0
2017-Jan-16 00:33N 40°39' W 074°06'7 7.3
2017-Jan-15 23:33N 40°43' W 073°58'1 1.3
2017-Jan-15 22:34N 40°44' W 073°58'6 6.3
2017-Jan-15 21:33N 40°39' W 074°03'2 2.1
2017-Jan-15 20:33N 40°39' W 074°06'6 5.9
2017-Jan-15 19:33N 40°36' W 074°12'0 0.1
2017-Jan-15 18:33N 40°35' W 074°12'0 0.0
2017-Jan-15 17:33N 40°35' W 074°12'0 0.0
2017-Jan-15 16:33N 40°35' W 074°12'1 0.9
2017-Jan-15 15:33N 40°35' W 074°13'1 0.5
2017-Jan-15 13:32N 40°35' W 074°12'6 6.1
2017-Jan-15 12:33N 40°39' W 074°06'0 0.0
2017-Jan-15 11:33N 40°39' W 074°06'0 0.0
2017-Jan-15 10:33N 40°39' W 074°06'0 0.0
2017-Jan-15 09:33N 40°39' W 074°06'0 0.0
2017-Jan-15 08:33N 40°39' W 074°06'0 0.0
2017-Jan-15 07:33N 40°39' W 074°06'0 0.0
2017-Jan-15 06:33N 40°39' W 074°06'1 0.6
2017-Jan-15 05:33N 40°39' W 074°05'1 1.2
2017-Jan-15 04:33N 40°40' W 074°04'3 2.8
2017-Jan-15 03:33N 40°39' W 074°07'0 0.0
2017-Jan-15 02:33N 40°39' W 074°07'0 0.0
2017-Jan-15 01:33N 40°39' W 074°07'0 0.0
2017-Jan-15 00:33N 40°39' W 074°07'0 0.0
2017-Jan-14 23:33N 40°39' W 074°07'3 2.8
2017-Jan-14 22:33N 40°39' W 074°11'3 2.9
2017-Jan-14 21:33N 40°36' W 074°12'3 3.3
2017-Jan-14 20:33N 40°39' W 074°10'5 5.4
2017-Jan-14 19:33N 40°39' W 074°02'0 0.0
2017-Jan-14 18:33N 40°39' W 074°02'0 0.0
2017-Jan-14 17:33N 40°39' W 074°02'0 0.0
2017-Jan-14 16:33N 40°39' W 074°02'0 0.1
2017-Jan-14 15:33N 40°40' W 074°02'0 0.1
2017-Jan-14 14:33N 40°40' W 074°02'0 0.0
2017-Jan-14 13:33N 40°40' W 074°02'0 0.0
2017-Jan-14 12:33N 40°40' W 074°02'0 0.1
2017-Jan-14 11:33N 40°39' W 074°03'0 0.1
2017-Jan-14 10:33N 40°39' W 074°02'8 8.0
2017-Jan-14 09:33N 40°47' W 073°60'1212.3
2017-Jan-14 08:33N 40°59' W 073°54'2 0.1
2017-Jan-13 09:20N 40°56' W 073°55'4 4.9
2017-Jan-13 08:33N 40°53' W 073°56'4 4.4
2017-Jan-13 07:33N 40°49' W 073°58'4 4.2
2017-Jan-13 06:33N 40°45' W 074°01'5 5.1
2017-Jan-13 05:33N 40°40' W 074°03'7 6.7
2017-Jan-13 04:33N 40°39' W 074°11'6 0.9
2017-Jan-12 21:33N 40°33' W 074°15'1 1.2
2017-Jan-12 20:33N 40°33' W 074°14'2 0.3
2017-Jan-12 13:25N 40°35' W 074°12'0 0.3
2017-Jan-12 12:16N 40°35' W 074°13'0 0.0
2017-Jan-12 09:24N 40°35' W 074°13'0 0.0
2017-Jan-12 08:33N 40°35' W 074°13'0 0.0
2017-Jan-12 07:33N 40°35' W 074°13'0 0.0
2017-Jan-12 06:33N 40°35' W 074°13'3 3.0
2017-Jan-12 05:33N 40°33' W 074°15'1 0.3
2017-Jan-12 01:33N 40°33' W 074°14'5 4.7
2017-Jan-12 00:33N 40°38' W 074°12'2 1.9
2017-Jan-11 23:33N 40°38' W 074°10'0 0.0
2017-Jan-11 22:33N 40°38' W 074°10'3 2.8
2017-Jan-11 21:33N 40°39' W 074°06'0 0.0
2017-Jan-11 20:33N 40°39' W 074°06'0 0.0
2017-Jan-11 19:33N 40°39' W 074°06'1 0.7
2017-Jan-11 18:34N 40°39' W 074°05'2 1.9
2017-Jan-11 17:33N 40°39' W 074°03'0 0.0
2017-Jan-11 16:33N 40°39' W 074°03'0 0.1
2017-Jan-11 15:33N 40°39' W 074°03'0 0.0
2017-Jan-11 14:33N 40°39' W 074°03'0 0.1
2017-Jan-11 13:33N 40°39' W 074°02'0 0.0
2017-Jan-11 12:33N 40°39' W 074°02'0 0.0
2017-Jan-11 11:33N 40°39' W 074°02'0 0.0
2017-Jan-11 10:33N 40°39' W 074°02'0 0.0
2017-Jan-11 09:33N 40°39' W 074°02'0 0.0
2017-Jan-11 08:33N 40°39' W 074°02'0 0.0
2017-Jan-11 07:33N 40°39' W 074°02'0 0.1
2017-Jan-11 06:33N 40°39' W 074°03'0 0.0
2017-Jan-11 05:33N 40°39' W 074°03'0 0.0
2017-Jan-11 04:33N 40°39' W 074°03'0 0.1
2017-Jan-11 03:33N 40°39' W 074°03'0 0.0
2017-Jan-11 02:34N 40°39' W 074°03'0 0.0
2017-Jan-11 01:34N 40°39' W 074°03'0 0.0
2017-Jan-11 00:34N 40°39' W 074°02'1 0.6
2017-Jan-10 23:33N 40°40' W 074°03'0 0.0
2017-Jan-10 22:33N 40°40' W 074°03'0 0.0
2017-Jan-10 21:33N 40°40' W 074°03'0 0.1
2017-Jan-10 20:34N 40°40' W 074°03'0 0.1
2017-Jan-10 19:33N 40°40' W 074°03'0 0.0
2017-Jan-10 18:34N 40°40' W 074°03'0 0.0
2017-Jan-10 17:32N 40°40' W 074°03'0 0.0
2017-Jan-10 16:33N 40°40' W 074°03'0 0.0
2017-Jan-10 15:33N 40°40' W 074°03'0 0.0
2017-Jan-10 14:33N 40°40' W 074°03'0 0.1
2017-Jan-10 13:33N 40°40' W 074°03'1 1.3
2017-Jan-10 12:33N 40°39' W 074°04'1 1.4
2017-Jan-10 11:33N 40°39' W 074°06'0 0.0
2017-Jan-10 10:33N 40°39' W 074°06'0 0.0
2017-Jan-10 09:33N 40°39' W 074°06'1 1.0
2017-Jan-10 08:33N 40°39' W 074°07'0 0.0
2017-Jan-10 07:33N 40°39' W 074°07'2 2.4
2017-Jan-10 06:33N 40°39' W 074°10'7 7.2
2017-Jan-10 05:33N 40°33' W 074°15'0 0.0
2017-Jan-10 04:32N 40°33' W 074°15'0 0.3
2017-Jan-10 03:33N 40°32' W 074°15'0 0.0
2017-Jan-10 02:33N 40°32' W 074°15'1 0.4
2017-Jan-09 23:27N 40°33' W 074°14'6 6.6
2017-Jan-09 22:32N 40°39' W 074°11'3 2.8
2017-Jan-09 21:33N 40°39' W 074°07'0 0.0
2017-Jan-09 20:33N 40°39' W 074°07'0 0.0
2017-Jan-09 19:33N 40°39' W 074°07'0 0.0
2017-Jan-09 18:34N 40°39' W 074°07'0 0.0
2017-Jan-09 17:34N 40°39' W 074°07'4 4.1
2017-Jan-09 16:33N 40°37' W 074°12'2 1.7
2017-Jan-09 15:32N 40°35' W 074°12'1 0.4
2017-Jan-09 14:19N 40°36' W 074°12'5 6.9
2017-Jan-09 13:33N 40°39' W 074°06'3 3.2
2017-Jan-09 12:33N 40°39' W 074°02'0 0.0
2017-Jan-09 11:33N 40°39' W 074°02'0 0.0
2017-Jan-09 10:33N 40°39' W 074°02'0 0.0
2017-Jan-09 09:33N 40°39' W 074°02'0 0.0
2017-Jan-09 08:33N 40°39' W 074°02'3 2.6
2017-Jan-09 07:33N 40°42' W 074°00'0 0.0
2017-Jan-09 06:34N 40°42' W 074°00'3 2.6
2017-Jan-09 05:34N 40°39' W 074°02'0 0.0
2017-Jan-09 04:34N 40°39' W 074°02'0 0.0
2017-Jan-09 03:33N 40°39' W 074°02'0 0.0
2017-Jan-09 02:33N 40°39' W 074°02'0 0.0
2017-Jan-09 01:34N 40°39' W 074°02'0 0.0
2017-Jan-09 00:34N 40°39' W 074°02'6 5.9
2017-Jan-08 23:33N 40°44' W 073°58'7 6.6
2017-Jan-08 22:34N 40°48' W 073°51'9 5.9
2017-Jan-08 21:06N 40°54' W 073°42'1 2.1
2017-Jan-08 20:33N 40°55' W 073°42'  

Dump ship's entire track history